createdAt,value
2019-05-02T00:02:02.463Z,56.10
2019-05-02T00:04:31.193Z,54.00
2019-05-02T00:07:04.036Z,53.83
2019-05-02T00:09:33.917Z,55.93
2019-05-02T00:12:03.441Z,56.27
2019-05-02T00:14:32.197Z,55.90
2019-05-02T00:17:00.844Z,56.13
2019-05-02T00:19:29.483Z,54.27
2019-05-02T00:21:58.556Z,53.73
2019-05-02T00:24:27.294Z,54.43
2019-05-02T00:27:00.799Z,52.63
2019-05-02T00:29:26.264Z,53.20
2019-05-02T00:31:54.911Z,52.07
2019-05-02T00:34:25.712Z,50.73
2019-05-02T00:36:54.374Z,52.37
2019-05-02T00:39:23.085Z,51.27
2019-05-02T00:41:51.736Z,54.60
2019-05-02T00:44:22.926Z,55.13
2019-05-02T00:46:51.903Z,55.95
2019-05-02T00:49:23.277Z,57.60
2019-05-02T00:51:51.996Z,53.78
2019-05-02T00:54:24.120Z,52.77
2019-05-02T00:56:50.892Z,53.33
2019-05-02T00:59:19.519Z,57.17
2019-05-02T01:01:52.589Z,54.43
2019-05-02T01:04:23.252Z,61.93
2019-05-02T01:07:02.337Z,51.73
2019-05-02T01:09:31.960Z,54.23
2019-05-02T01:12:03.095Z,56.77
2019-05-02T01:14:31.823Z,56.20
2019-05-02T01:17:01.576Z,56.53
2019-05-02T01:19:32.142Z,58.97
2019-05-02T01:22:00.880Z,62.87
2019-05-02T01:24:34.247Z,56.40
2019-05-02T01:27:08.226Z,54.67
2019-05-02T01:29:38.456Z,54.00
2019-05-02T01:32:11.425Z,52.20
2019-05-02T01:34:41.778Z,53.13
2019-05-02T01:37:30.075Z,52.70
2019-05-02T01:40:01.424Z,53.73
2019-05-02T01:42:39.704Z,53.87
2019-05-02T01:45:00.311Z,54.03
2019-05-02T01:47:34.188Z,52.13
2019-05-02T01:50:00.292Z,52.60
2019-05-02T01:52:28.964Z,52.40
2019-05-02T01:54:57.451Z,54.73
2019-05-02T01:57:26.128Z,51.03
2019-05-02T02:00:04.307Z,52.70
2019-05-02T02:02:36.612Z,50.77
2019-05-02T02:05:07.517Z,51.20
2019-05-02T02:07:36.159Z,53.28
2019-05-02T02:10:06.565Z,52.93
2019-05-02T02:12:35.555Z,52.50
2019-05-02T02:15:05.462Z,52.60
2019-05-02T02:17:34.067Z,49.97
2019-05-02T02:20:04.351Z,54.40
2019-05-02T02:22:41.105Z,57.53
2019-05-02T02:25:26.839Z,58.33
2019-05-02T02:27:59.724Z,60.00
2019-05-02T02:30:26.611Z,66.30
2019-05-02T02:33:00.551Z,70.13
2019-05-02T02:35:31.720Z,61.83
2019-05-02T02:38:00.413Z,57.37
2019-05-02T02:40:33.534Z,53.10
2019-05-02T02:43:12.710Z,55.37
2019-05-02T02:45:40.131Z,59.63
2019-05-02T02:48:08.766Z,55.13
2019-05-02T02:50:43.203Z,58.10
2019-05-02T02:53:07.996Z,57.40
2019-05-02T02:55:36.558Z,54.33
2019-05-02T02:58:06.610Z,51.93
2019-05-02T03:00:41.524Z,55.40
2019-05-02T03:03:09.417Z,54.20
2019-05-02T03:05:38.023Z,52.60
2019-05-02T03:08:07.262Z,52.67
2019-05-02T03:10:56.649Z,56.23
2019-05-02T03:13:26.928Z,55.80
2019-05-02T03:16:07.049Z,57.73
2019-05-02T03:18:39.499Z,53.23
2019-05-02T03:21:01.222Z,51.63
2019-05-02T03:23:30.335Z,53.70
2019-05-02T03:25:59.026Z,51.67
2019-05-02T03:28:27.720Z,53.57
2019-05-02T03:30:59.378Z,55.47
2019-05-02T03:33:28.505Z,53.78
2019-05-02T03:35:58.115Z,52.33
2019-05-02T03:38:32.739Z,56.53
2019-05-02T03:41:00.134Z,54.17
2019-05-02T03:43:31.889Z,51.23
2019-05-02T03:48:35.454Z,48.60
2019-05-02T03:51:05.196Z,51.83
2019-05-02T03:53:34.544Z,49.50
2019-05-02T03:56:10.472Z,50.13
2019-05-02T03:58:35.548Z,50.67
2019-05-02T04:01:09.932Z,50.97
2019-05-02T04:03:44.499Z,47.80
2019-05-02T04:06:31.908Z,49.17
2019-05-02T04:09:05.670Z,50.50
2019-05-02T04:11:44.022Z,53.97
2019-05-02T04:14:17.787Z,53.63
2019-05-02T04:16:55.108Z,52.27
2019-05-02T04:19:36.669Z,49.00
2019-05-02T04:22:22.525Z,47.63
2019-05-02T04:25:00.772Z,49.53
2019-05-02T04:27:36.157Z,50.67
2019-05-02T04:30:11.394Z,48.37
2019-05-02T04:35:05.513Z,44.83
2019-05-02T04:37:41.179Z,46.20
2019-05-02T04:40:12.165Z,46.43
2019-05-02T04:42:50.391Z,45.17
2019-05-02T04:45:24.408Z,44.73
2019-05-02T04:50:18.453Z,44.00
2019-05-02T04:52:53.633Z,44.73
2019-05-02T04:55:30.255Z,42.87
2019-05-02T04:57:54.310Z,42.90
2019-05-02T05:00:28.947Z,42.10
2019-05-02T05:03:28.302Z,43.63
2019-05-02T05:06:06.834Z,42.87
2019-05-02T05:08:32.158Z,41.87
2019-05-02T05:13:37.390Z,40.43
2019-05-02T05:16:15.672Z,41.07
2019-05-02T05:19:10.916Z,40.80
2019-05-02T05:22:18.247Z,43.07
2019-05-02T05:24:58.233Z,40.98
2019-05-02T05:27:29.709Z,42.78
2019-05-02T05:30:07.950Z,41.18
2019-05-02T05:32:39.009Z,42.30
2019-05-02T05:35:09.025Z,43.80
2019-05-02T05:37:43.429Z,44.20
2019-05-02T05:40:13.589Z,44.50
2019-05-02T05:42:48.212Z,45.20
2019-05-02T05:45:18.078Z,44.67
2019-05-02T05:47:47.926Z,47.58
2019-05-02T05:50:22.636Z,51.28
2019-05-02T05:52:51.955Z,50.85
2019-05-02T05:55:24.225Z,53.13
2019-05-02T05:57:59.485Z,54.73
2019-05-02T06:00:23.195Z,58.35
2019-05-02T06:02:56.285Z,55.33
2019-05-02T06:05:22.416Z,58.15
2019-05-02T06:07:51.088Z,59.00
2019-05-02T06:10:20.065Z,62.80
2019-05-02T06:12:48.902Z,60.50
2019-05-02T06:15:17.484Z,59.55
2019-05-02T06:17:46.078Z,58.90
2019-05-02T06:20:15.514Z,60.78
2019-05-02T06:22:59.939Z,56.83
2019-05-02T06:25:34.611Z,59.13
2019-05-02T06:28:00.258Z,51.95
2019-05-02T06:30:30.705Z,50.70
2019-05-02T06:32:57.217Z,53.42
2019-05-02T06:35:25.811Z,55.43
2019-05-02T06:37:54.405Z,56.15
2019-05-02T06:40:23.020Z,59.13
2019-05-02T06:42:51.587Z,59.35
2019-05-02T06:45:20.480Z,59.70
2019-05-02T06:47:49.083Z,60.95
2019-05-02T06:50:17.928Z,62.67
2019-05-02T06:52:46.538Z,62.62
2019-05-02T06:55:17.757Z,61.63
2019-05-02T06:57:47.981Z,60.52
2019-05-02T07:00:17.741Z,59.60
2019-05-02T07:02:46.345Z,60.08
2019-05-02T07:05:15.100Z,57.98
2019-05-02T07:07:43.748Z,57.53
2019-05-02T07:10:13.000Z,58.00
2019-05-02T07:12:46.149Z,57.33
2019-05-02T07:15:33.642Z,57.93
2019-05-02T07:18:12.104Z,55.95
2019-05-02T07:20:54.211Z,55.35
2019-05-02T07:23:23.282Z,53.92
2019-05-02T07:25:53.987Z,53.17
2019-05-02T07:28:24.199Z,54.25
2019-05-02T07:30:54.774Z,51.80
2019-05-02T07:33:23.746Z,52.62
2019-05-02T07:35:55.323Z,53.25
2019-05-02T07:38:25.619Z,54.00
2019-05-02T07:40:54.306Z,51.50
2019-05-02T07:43:25.344Z,51.63
2019-05-02T07:45:59.728Z,52.83
2019-05-02T07:48:34.757Z,53.65
2019-05-02T07:51:26.996Z,54.58
2019-05-02T07:53:59.249Z,56.18
2019-05-02T07:56:28.443Z,53.87
2019-05-02T07:59:11.087Z,55.52
2019-05-02T08:01:44.908Z,52.38
2019-05-02T08:04:24.217Z,53.52
2019-05-02T08:06:55.121Z,51.58
2019-05-02T08:09:32.828Z,55.98
2019-05-02T08:12:10.480Z,56.92
2019-05-02T08:14:40.327Z,52.93
2019-05-02T08:17:16.125Z,50.35
2019-05-02T08:19:53.942Z,51.00
2019-05-02T08:22:25.623Z,53.78
2019-05-02T08:25:02.575Z,53.73
2019-05-02T08:27:34.739Z,53.63
2019-05-02T08:30:04.448Z,57.00
2019-05-02T08:35:09.374Z,50.73
2019-05-02T08:37:41.031Z,49.30
2019-05-02T08:40:11.047Z,49.80
2019-05-02T08:42:41.572Z,49.30
2019-05-02T08:45:10.404Z,54.05
2019-05-02T08:47:39.090Z,54.35
2019-05-02T08:50:08.863Z,53.63
2019-05-02T08:52:44.213Z,52.27
2019-05-02T08:55:13.129Z,53.48
2019-05-02T08:57:41.812Z,53.00
2019-05-02T09:00:12.847Z,54.60
2019-05-02T09:02:42.211Z,52.83
2019-05-02T09:05:14.637Z,53.15
2019-05-02T09:07:43.396Z,52.30
2019-05-02T09:10:21.076Z,52.50
2019-05-02T09:12:49.688Z,53.40
2019-05-02T09:15:18.427Z,51.80
2019-05-02T09:17:54.905Z,49.45
2019-05-02T09:20:20.759Z,49.65
2019-05-02T09:22:52.197Z,51.20
2019-05-02T09:25:18.761Z,51.03
2019-05-02T09:28:03.989Z,50.35
2019-05-02T09:30:32.790Z,48.17
2019-05-02T09:33:04.914Z,49.90
2019-05-02T09:35:32.816Z,50.87
2019-05-02T09:38:01.845Z,50.90
2019-05-02T09:40:31.912Z,51.02
2019-05-02T09:43:02.824Z,50.67
2019-05-02T09:45:37.013Z,50.43
2019-05-02T09:48:07.185Z,50.98
2019-05-02T09:50:35.488Z,51.73
2019-05-02T09:53:07.686Z,52.10
2019-05-02T09:55:36.266Z,52.50
2019-05-02T09:58:19.058Z,51.95
2019-05-02T10:00:45.903Z,52.35
2019-05-02T10:03:16.349Z,55.25
2019-05-02T10:05:45.042Z,62.53
2019-05-02T10:08:14.078Z,62.60
2019-05-02T10:10:46.011Z,64.65
2019-05-02T10:13:14.911Z,65.78
2019-05-02T10:15:43.559Z,64.17
2019-05-02T10:18:14.536Z,64.87
2019-05-02T10:20:42.940Z,66.20
2019-05-02T10:23:19.348Z,66.12
2019-05-02T10:25:48.078Z,65.50
2019-05-02T10:28:22.660Z,66.55
2019-05-02T10:30:52.581Z,66.70
2019-05-02T10:33:27.958Z,68.72
2019-05-02T10:35:54.491Z,66.87
2019-05-02T10:38:23.206Z,67.62
2019-05-02T10:41:01.329Z,67.20
2019-05-02T10:43:25.234Z,66.92
2019-05-02T10:46:01.903Z,66.40
2019-05-02T10:48:34.787Z,65.35
2019-05-02T10:51:25.631Z,65.37
2019-05-02T10:53:57.567Z,65.32
2019-05-02T10:56:32.718Z,66.85
2019-05-02T10:59:05.309Z,66.42
2019-05-02T11:01:36.255Z,63.60
2019-05-02T11:04:07.146Z,67.80
2019-05-02T11:06:45.911Z,66.70
2019-05-02T11:09:16.740Z,64.72
2019-05-02T11:11:43.237Z,66.22
2019-05-02T11:14:15.737Z,66.07
2019-05-02T11:17:08.772Z,67.40
2019-05-02T11:19:46.412Z,64.47
2019-05-02T11:22:15.069Z,63.68
2019-05-02T11:24:43.640Z,66.30
2019-05-02T11:27:12.815Z,63.25
2019-05-02T11:29:42.568Z,66.85
2019-05-02T11:32:14.474Z,63.58
2019-05-02T11:34:52.284Z,64.32
2019-05-02T11:37:22.560Z,60.90
2019-05-02T11:39:59.290Z,65.30
2019-05-02T11:42:27.245Z,64.50
2019-05-02T11:44:54.132Z,64.30
2019-05-02T11:47:26.487Z,64.17
2019-05-02T11:49:55.926Z,63.80
2019-05-02T11:52:33.089Z,62.35
2019-05-02T11:54:59.349Z,64.87
2019-05-02T11:57:30.387Z,64.77
2019-05-02T11:59:59.396Z,66.05
2019-05-02T12:02:36.353Z,64.37
2019-05-02T12:05:10.331Z,63.02
2019-05-02T12:07:38.981Z,66.10
2019-05-02T12:10:08.044Z,63.50
2019-05-02T12:12:36.689Z,64.90
2019-05-02T12:15:07.221Z,58.15
2019-05-02T12:17:37.377Z,57.38
2019-05-02T12:20:06.431Z,55.90
2019-05-02T12:22:35.136Z,55.33
2019-05-02T12:25:04.550Z,53.95
2019-05-02T12:27:34.080Z,47.80
2019-05-02T12:30:03.342Z,46.60
2019-05-02T12:32:33.423Z,48.13
2019-05-02T12:35:02.523Z,46.28
2019-05-02T12:37:32.704Z,46.55
2019-05-02T12:40:02.699Z,46.80
2019-05-02T12:42:33.082Z,48.68
2019-05-02T12:45:02.841Z,49.03
2019-05-02T12:47:31.991Z,46.58
2019-05-02T12:50:02.968Z,48.48
2019-05-02T12:52:32.075Z,48.68
2019-05-02T12:55:02.279Z,44.67
2019-05-02T12:57:32.138Z,45.43
2019-05-02T13:00:02.041Z,43.92
2019-05-02T13:02:52.547Z,39.35
2019-05-02T13:05:22.197Z,39.27
2019-05-02T13:07:56.609Z,33.20
2019-05-02T13:10:26.951Z,30.77
2019-05-02T13:12:55.574Z,32.83
2019-05-02T13:15:24.212Z,34.08
2019-05-02T13:17:52.994Z,37.85
2019-05-02T13:20:24.731Z,34.05
2019-05-02T13:23:06.160Z,31.35
2019-05-02T13:25:36.859Z,33.67
2019-05-02T13:28:05.332Z,31.97
2019-05-02T13:30:42.717Z,32.05
2019-05-02T13:33:07.600Z,30.57
2019-05-02T13:35:37.883Z,31.10
2019-05-02T13:38:06.767Z,28.77
2019-05-02T13:40:41.666Z,27.10
2019-05-02T13:43:12.344Z,27.73
2019-05-02T13:45:46.393Z,27.10
2019-05-02T13:48:15.138Z,29.42
2019-05-02T13:50:43.856Z,28.50
2019-05-02T13:53:22.560Z,26.80
2019-05-02T13:55:54.851Z,28.47
2019-05-02T13:58:28.977Z,26.75
2019-05-02T14:00:53.930Z,26.15
2019-05-02T14:03:22.732Z,27.15
2019-05-02T14:05:53.823Z,22.98
2019-05-02T14:08:27.673Z,22.90
2019-05-02T14:10:57.858Z,20.43
2019-05-02T14:13:28.551Z,23.83
2019-05-02T14:15:57.348Z,21.30
2019-05-02T14:18:28.842Z,23.07
2019-05-02T14:20:57.805Z,21.82
2019-05-02T14:23:27.152Z,21.45
2019-05-02T14:26:04.338Z,19.75
2019-05-02T14:28:36.318Z,20.92
2019-05-02T14:31:03.626Z,21.00
2019-05-02T14:33:33.865Z,21.52
2019-05-02T14:36:02.450Z,22.22
2019-05-02T14:38:33.660Z,21.52
2019-05-02T14:41:05.018Z,20.43
2019-05-02T14:43:56.110Z,21.60
2019-05-02T14:46:37.329Z,21.40
2019-05-02T14:48:56.983Z,19.57
2019-05-02T14:51:28.358Z,19.30
2019-05-02T14:54:07.970Z,17.32
2019-05-02T14:56:47.815Z,18.42
2019-05-02T14:59:19.921Z,18.65
2019-05-02T15:01:53.066Z,19.30
2019-05-02T15:04:23.439Z,20.68
2019-05-02T15:06:52.713Z,19.17
2019-05-02T15:09:26.374Z,21.07
2019-05-02T15:12:02.393Z,20.10
2019-05-02T15:14:34.184Z,20.88
2019-05-02T15:17:03.814Z,20.77
2019-05-02T15:19:33.087Z,22.30
2019-05-02T15:22:02.408Z,22.75
2019-05-02T15:24:37.544Z,21.73
2019-05-02T15:27:13.616Z,20.80
2019-05-02T15:29:41.992Z,21.45
2019-05-02T15:32:14.858Z,23.15
2019-05-02T15:35:02.383Z,23.77
2019-05-02T15:37:32.164Z,22.52
2019-05-02T15:42:32.292Z,24.60
2019-05-02T15:45:01.947Z,24.27
2019-05-02T15:47:32.088Z,25.80
2019-05-02T15:50:02.855Z,25.62
2019-05-02T15:52:32.780Z,24.70
2019-05-02T15:55:03.990Z,27.70
2019-05-02T15:57:38.034Z,28.42
2019-05-02T16:00:09.082Z,27.77
2019-05-02T16:02:38.282Z,34.08
2019-05-02T16:05:11.769Z,31.45
2019-05-02T16:07:44.963Z,32.25
2019-05-02T16:10:13.498Z,32.00
2019-05-02T16:12:43.792Z,32.25
2019-05-02T16:15:21.111Z,29.45
2019-05-02T16:17:45.359Z,28.83
2019-05-02T16:20:24.039Z,31.65
2019-05-02T16:22:55.180Z,34.78
2019-05-02T16:27:57.582Z,38.73
2019-05-02T16:30:47.278Z,36.45
2019-05-02T16:33:17.399Z,32.00
2019-05-02T16:35:51.536Z,25.62
2019-05-02T16:38:22.241Z,26.45
2019-05-02T16:40:57.056Z,28.05
2019-05-02T16:43:27.580Z,27.90
2019-05-02T16:45:56.219Z,27.95
2019-05-02T16:48:42.485Z,26.97
2019-05-02T16:51:31.066Z,28.10
2019-05-02T16:53:55.997Z,31.02
2019-05-02T16:56:26.744Z,32.03
2019-05-02T16:59:02.117Z,36.05
2019-05-02T17:01:42.455Z,40.80
2019-05-02T17:04:19.681Z,40.95
2019-05-02T17:07:06.930Z,46.35
2019-05-02T17:09:52.099Z,51.02
2019-05-02T17:12:23.673Z,49.38
2019-05-02T17:15:13.778Z,52.03
2019-05-02T17:17:46.884Z,45.75
2019-05-02T17:20:17.094Z,47.00
2019-05-02T17:22:50.486Z,45.67
2019-05-02T17:25:28.383Z,45.30
2019-05-02T17:28:01.682Z,45.55
2019-05-02T17:30:38.542Z,43.70
2019-05-02T17:33:07.097Z,44.58
2019-05-02T17:35:34.722Z,47.73
2019-05-02T17:38:05.000Z,47.73
2019-05-02T17:40:46.108Z,44.10
2019-05-02T17:43:22.697Z,48.78
2019-05-02T17:45:51.568Z,42.78
2019-05-02T17:48:20.300Z,46.13
2019-05-02T17:51:02.585Z,44.15
2019-05-02T17:53:33.931Z,39.55
2019-05-02T17:56:03.593Z,38.90
2019-05-02T17:58:34.613Z,38.90
2019-05-02T18:01:04.904Z,38.83
2019-05-02T18:03:48.237Z,45.45
2019-05-02T18:06:35.669Z,43.73
2019-05-02T18:09:08.007Z,33.78
2019-05-02T18:11:44.002Z,31.60
2019-05-02T18:14:21.244Z,30.02
2019-05-02T18:16:51.872Z,25.05
2019-05-02T18:19:21.867Z,26.40
2019-05-02T18:21:50.050Z,23.10
2019-05-02T18:24:18.750Z,21.48
2019-05-02T18:26:47.466Z,19.70
2019-05-02T18:29:16.442Z,17.82
2019-05-02T18:31:57.165Z,17.50
2019-05-02T18:34:26.024Z,17.30
2019-05-02T18:37:03.081Z,17.25
2019-05-02T18:39:34.815Z,16.70
2019-05-02T18:42:03.038Z,17.75
2019-05-02T18:44:32.614Z,16.73
2019-05-02T18:47:02.413Z,17.17
2019-05-02T18:49:32.297Z,20.40
2019-05-02T18:52:01.811Z,18.85
2019-05-02T18:54:48.725Z,19.57
2019-05-02T18:57:24.421Z,19.65
2019-05-02T19:00:02.671Z,21.62
2019-05-02T19:02:35.605Z,19.55
2019-05-02T19:05:06.014Z,20.70
2019-05-02T19:07:54.825Z,18.95
2019-05-02T19:10:23.149Z,18.73
2019-05-02T19:12:56.067Z,19.67
2019-05-02T19:15:23.544Z,18.10
2019-05-02T19:17:53.343Z,15.38
2019-05-02T19:20:32.590Z,15.13
2019-05-02T19:23:07.370Z,14.13
2019-05-02T19:25:36.095Z,14.13
2019-05-02T19:28:06.825Z,14.53
2019-05-02T19:30:39.847Z,15.10
2019-05-02T19:33:08.683Z,14.93
2019-05-02T19:35:42.112Z,13.80
2019-05-02T19:38:08.990Z,14.20
2019-05-02T19:40:37.656Z,14.55
2019-05-02T19:43:07.802Z,14.38
2019-05-02T19:45:37.037Z,15.00
2019-05-02T19:48:05.958Z,15.40
2019-05-02T19:50:43.142Z,16.07
2019-05-02T19:53:18.099Z,17.77
2019-05-02T19:55:42.701Z,21.93
2019-05-02T19:58:36.568Z,22.70
2019-05-02T20:01:05.708Z,21.55
2019-05-02T20:03:47.875Z,18.50
2019-05-02T20:06:16.660Z,20.60
2019-05-02T20:08:45.386Z,22.87
2019-05-02T20:11:14.095Z,22.42
2019-05-02T20:13:42.989Z,21.33
2019-05-02T20:16:26.051Z,21.10
2019-05-02T20:18:58.064Z,19.98
2019-05-02T20:21:34.058Z,17.90
2019-05-02T20:24:04.109Z,16.82
2019-05-02T20:26:33.171Z,16.60
2019-05-02T20:29:05.439Z,18.30
2019-05-02T20:31:34.632Z,18.20
2019-05-02T20:34:05.859Z,18.35
2019-05-02T20:36:36.123Z,19.05
2019-05-02T20:39:08.102Z,17.67
2019-05-02T20:41:36.894Z,16.65
2019-05-02T20:44:05.561Z,17.25
2019-05-02T20:46:34.271Z,17.05
2019-05-02T20:49:04.000Z,16.55
2019-05-02T20:51:32.689Z,18.05
2019-05-02T20:54:02.004Z,16.50
2019-05-02T20:56:33.815Z,16.73
2019-05-02T21:01:36.138Z,17.07
2019-05-02T21:04:04.794Z,17.87
2019-05-02T21:06:50.137Z,18.00
2019-05-02T21:09:23.097Z,18.30
2019-05-02T21:11:53.445Z,18.73
2019-05-02T21:14:22.274Z,18.98
2019-05-02T21:16:51.038Z,17.42
2019-05-02T21:19:21.726Z,17.98
2019-05-02T21:21:52.573Z,18.55
2019-05-02T21:24:22.090Z,18.10
2019-05-02T21:27:01.799Z,19.60
2019-05-02T21:29:36.261Z,18.15
2019-05-02T21:32:04.997Z,17.23
2019-05-02T21:34:34.703Z,18.12
2019-05-02T21:37:03.341Z,19.05
2019-05-02T21:39:34.671Z,19.87
2019-05-02T21:42:03.419Z,19.42
2019-05-02T21:44:32.587Z,20.12
2019-05-02T21:47:02.874Z,19.47
2019-05-02T21:49:44.948Z,19.27
2019-05-02T21:52:22.583Z,19.77
2019-05-02T21:54:53.091Z,21.40
2019-05-02T21:57:24.761Z,22.33
2019-05-02T22:02:22.575Z,21.63
2019-05-02T22:04:57.610Z,23.70
2019-05-02T22:07:32.339Z,25.77
2019-05-02T22:09:59.826Z,25.23
2019-05-02T22:12:31.790Z,24.85
2019-05-02T22:15:03.216Z,22.70
2019-05-02T22:17:32.293Z,24.20
2019-05-02T22:20:01.871Z,24.98
2019-05-02T22:22:31.751Z,26.57
2019-05-02T22:25:02.226Z,24.37
2019-05-02T22:27:47.178Z,27.93
2019-05-02T22:30:23.186Z,27.77
2019-05-02T22:32:55.675Z,27.50
2019-05-02T22:35:26.445Z,28.60
2019-05-02T22:38:05.483Z,27.37
2019-05-02T22:40:36.837Z,27.57
2019-05-02T22:43:14.652Z,29.30
2019-05-02T22:45:43.506Z,27.37
2019-05-02T22:48:14.289Z,22.23
2019-05-02T22:50:43.415Z,22.97
2019-05-02T22:53:13.898Z,21.07
2019-05-02T22:55:42.543Z,22.07
2019-05-02T22:58:13.863Z,21.30
2019-05-02T23:00:45.327Z,21.07
2019-05-02T23:03:24.150Z,21.82
2019-05-02T23:05:52.710Z,22.23
2019-05-02T23:08:21.958Z,24.18
2019-05-02T23:10:52.024Z,22.22
2019-05-02T23:13:21.984Z,21.07
2019-05-02T23:15:53.372Z,22.55
2019-05-02T23:18:28.094Z,23.15
2019-05-02T23:20:56.819Z,23.73
2019-05-02T23:23:28.137Z,23.65
2019-05-02T23:26:10.402Z,23.22
2019-05-02T23:28:42.291Z,21.60
2019-05-02T23:31:11.483Z,21.68
2019-05-02T23:34:01.842Z,21.42
2019-05-02T23:36:32.619Z,21.23
2019-05-02T23:39:05.762Z,22.05
2019-05-02T23:41:42.016Z,21.67
2019-05-02T23:44:12.301Z,22.67
2019-05-02T23:46:51.607Z,24.20
2019-05-02T23:49:22.009Z,28.07
2019-05-02T23:51:52.212Z,26.00
2019-05-02T23:54:22.056Z,26.27
2019-05-02T23:56:50.897Z,25.70
2019-05-02T23:59:19.521Z,27.87
